Terminal Aerodrome Forecast
Issued by NWS Rapid City, SD

Home | Current Version | Previous Version | Graphics & Text | Print | Product List | Glossary On
Versions: 1 2 3 4 5 6 7 8 9 10 11 12 13 14 15 16 17 18 19 20 21 22 23 24 25
000
FTUS43 KUNR 190700 AAA
TAFRAP
TAF AMD
KRAP 190712Z 1907/2006 32020G30KT P6SM SCT015 BKN030
     FM190800 36016KT P6SM OVC015
     FM192000 34010KT P6SM BKN030=

USA.gov is the U.S. government's official web portal to all federal, state and local government web resources and services.